Terminal Aerodrome Forecast
Issued by NWS

Home | Current Version | Previous Version | Text Only | Print | Product List | Glossary On
Versions: 1 2 3 4 5 6 7 8 9 10 11 12 13 14 15 16 17 18 19
000
FTUS41 KBTV 230200 AAA
TAFMPV
TAF AMD
KMPV 230217Z 2302/2324 00000KT 5SM BR OVC080
      TEMPO 2302/2306 3SM -RA BR OVC020
     FM230600 00000KT 2SM -DZ BR OVC005
     FM231300 VRB03KT P6SM BKN030=

USA.gov is the U.S. government's official web portal to all federal, state and local government web resources and services.